sensor_id;sensor_type;location;lat;lon;timestamp;temperature;humidity
29917;DHT22;16786;49.466;11.068;2023-01-31T00:01:50;3.20;99.90
29917;DHT22;16786;49.466;11.068;2023-01-31T00:04:17;3.10;99.90
29917;DHT22;16786;49.466;11.068;2023-01-31T00:06:45;3.10;99.90
29917;DHT22;16786;49.466;11.068;2023-01-31T00:09:17;3.10;99.90
29917;DHT22;16786;49.466;11.068;2023-01-31T00:11:45;3.10;99.90
29917;DHT22;16786;49.466;11.068;2023-01-31T00:14:18;3.10;99.90
29917;DHT22;16786;49.466;11.068;2023-01-31T00:16:46;3.00;99.90
29917;DHT22;16786;49.466;11.068;2023-01-31T00:19:14;3.00;99.90
29917;DHT22;16786;49.466;11.068;2023-01-31T00:21:41;3.00;99.90
29917;DHT22;16786;49.466;11.068;2023-01-31T00:24:13;3.00;99.90
29917;DHT22;16786;49.466;11.068;2023-01-31T00:26:41;3.00;99.90
29917;DHT22;16786;49.466;11.068;2023-01-31T00:29:09;3.00;99.90
29917;DHT22;16786;49.466;11.068;2023-01-31T00:31:36;3.00;99.90
29917;DHT22;16786;49.466;11.068;2023-01-31T00:34:05;3.00;99.90
29917;DHT22;16786;49.466;11.068;2023-01-31T00:36:34;2.90;99.90
29917;DHT22;16786;49.466;11.068;2023-01-31T00:39:03;3.00;99.90
29917;DHT22;16786;49.466;11.068;2023-01-31T00:41:32;3.00;99.90
29917;DHT22;16786;49.466;11.068;2023-01-31T00:43:59;3.00;99.90
29917;DHT22;16786;49.466;11.068;2023-01-31T00:46:27;3.00;99.90
29917;DHT22;16786;49.466;11.068;2023-01-31T00:48:55;3.10;99.90
29917;DHT22;16786;49.466;11.068;2023-01-31T00:51:24;3.00;99.90
29917;DHT22;16786;49.466;11.068;2023-01-31T00:53:53;3.00;99.90
29917;DHT22;16786;49.466;11.068;2023-01-31T00:56:22;3.00;99.90
29917;DHT22;16786;49.466;11.068;2023-01-31T00:58:50;3.00;99.90
29917;DHT22;16786;49.466;11.068;2023-01-31T01:01:23;2.90;99.90
29917;DHT22;16786;49.466;11.068;2023-01-31T01:03:51;2.90;99.90
29917;DHT22;16786;49.466;11.068;2023-01-31T01:06:19;2.90;99.90
29917;DHT22;16786;49.466;11.068;2023-01-31T01:08:46;2.90;99.90
29917;DHT22;16786;49.466;11.068;2023-01-31T01:11:17;2.90;99.90
29917;DHT22;16786;49.466;11.068;2023-01-31T01:13:46;2.80;99.90
29917;DHT22;16786;49.466;11.068;2023-01-31T01:16:19;2.70;99.90
29917;DHT22;16786;49.466;11.068;2023-01-31T01:18:47;2.80;99.90
29917;DHT22;16786;49.466;11.068;2023-01-31T01:21:18;2.80;99.90
29917;DHT22;16786;49.466;11.068;2023-01-31T01:23:46;2.70;99.90
29917;DHT22;16786;49.466;11.068;2023-01-31T01:26:16;2.80;99.90
29917;DHT22;16786;49.466;11.068;2023-01-31T01:28:44;2.70;99.90
29917;DHT22;16786;49.466;11.068;2023-01-31T01:31:13;2.70;99.90
29917;DHT22;16786;49.466;11.068;2023-01-31T01:33:43;2.70;99.90
29917;DHT22;16786;49.466;11.068;2023-01-31T01:36:12;2.70;99.90
29917;DHT22;16786;49.466;11.068;2023-01-31T01:38:43;2.70;99.90
29917;DHT22;16786;49.466;11.068;2023-01-31T01:41:11;2.70;99.90
29917;DHT22;16786;49.466;11.068;2023-01-31T01:46:08;2.70;99.90
29917;DHT22;16786;49.466;11.068;2023-01-31T01:48:36;2.70;99.90
29917;DHT22;16786;49.466;11.068;2023-01-31T01:51:05;2.60;99.90
29917;DHT22;16786;49.466;11.068;2023-01-31T01:53:36;2.60;99.90
29917;DHT22;16786;49.466;11.068;2023-01-31T01:56:21;2.50;99.90
29917;DHT22;16786;49.466;11.068;2023-01-31T01:59:02;2.60;99.90
29917;DHT22;16786;49.466;11.068;2023-01-31T02:01:35;2.50;99.90
29917;DHT22;16786;49.466;11.068;2023-01-31T02:04:11;2.40;99.90
29917;DHT22;16786;49.466;11.068;2023-01-31T02:06:42;2.40;99.90
29917;DHT22;16786;49.466;11.068;2023-01-31T02:09:19;2.30;99.90
29917;DHT22;16786;49.466;11.068;2023-01-31T02:11:47;2.30;99.90
29917;DHT22;16786;49.466;11.068;2023-01-31T02:14:16;2.20;99.90
29917;DHT22;16786;49.466;11.068;2023-01-31T02:16:43;2.20;99.90
29917;DHT22;16786;49.466;11.068;2023-01-31T02:45:18;2.40;99.90
29917;DHT22;16786;49.466;11.068;2023-01-31T02:50:53;2.30;99.90
29917;DHT22;16786;49.466;11.068;2023-01-31T02:53:31;2.30;99.90
29917;DHT22;16786;49.466;11.068;2023-01-31T02:56:05;2.30;99.90
29917;DHT22;16786;49.466;11.068;2023-01-31T02:59:01;2.20;99.90
29917;DHT22;16786;49.466;11.068;2023-01-31T03:01:45;2.20;99.90
29917;DHT22;16786;49.466;11.068;2023-01-31T03:04:13;2.10;99.90
29917;DHT22;16786;49.466;11.068;2023-01-31T03:07:03;2.10;99.90
29917;DHT22;16786;49.466;11.068;2023-01-31T03:12:35;2.00;99.90
29917;DHT22;16786;49.466;11.068;2023-01-31T03:18:29;2.00;99.90
29917;DHT22;16786;49.466;11.068;2023-01-31T03:21:06;2.10;99.90
29917;DHT22;16786;49.466;11.068;2023-01-31T03:23:35;2.00;99.90
29917;DHT22;16786;49.466;11.068;2023-01-31T03:26:06;2.00;99.90
29917;DHT22;16786;49.466;11.068;2023-01-31T03:28:34;2.00;99.90
29917;DHT22;16786;49.466;11.068;2023-01-31T03:33:41;1.90;99.90
29917;DHT22;16786;49.466;11.068;2023-01-31T03:45:10;1.90;99.90
29917;DHT22;16786;49.466;11.068;2023-01-31T03:47:40;1.90;99.90
29917;DHT22;16786;49.466;11.068;2023-01-31T03:53:07;2.00;99.90
29917;DHT22;16786;49.466;11.068;2023-01-31T03:55:40;2.00;99.90
29917;DHT22;16786;49.466;11.068;2023-01-31T03:58:11;2.00;99.90
29917;DHT22;16786;49.466;11.068;2023-01-31T04:00:42;1.90;99.90
29917;DHT22;16786;49.466;11.068;2023-01-31T04:03:26;2.00;99.90
29917;DHT22;16786;49.466;11.068;2023-01-31T04:05:55;2.10;99.90
29917;DHT22;16786;49.466;11.068;2023-01-31T04:08:23;2.10;99.90
29917;DHT22;16786;49.466;11.068;2023-01-31T04:11:05;2.10;99.90
29917;DHT22;16786;49.466;11.068;2023-01-31T04:13:34;2.10;99.90
29917;DHT22;16786;49.466;11.068;2023-01-31T04:16:02;2.10;99.90
29917;DHT22;16786;49.466;11.068;2023-01-31T04:18:30;2.10;99.90
29917;DHT22;16786;49.466;11.068;2023-01-31T04:20:58;2.00;99.90
29917;DHT22;16786;49.466;11.068;2023-01-31T04:23:25;2.00;99.90
29917;DHT22;16786;49.466;11.068;2023-01-31T04:25:52;2.10;99.90
29917;DHT22;16786;49.466;11.068;2023-01-31T04:28:21;2.10;99.90
29917;DHT22;16786;49.466;11.068;2023-01-31T04:30:55;2.00;99.90
29917;DHT22;16786;49.466;11.068;2023-01-31T04:33:23;2.00;99.90
29917;DHT22;16786;49.466;11.068;2023-01-31T04:35:51;2.10;99.90
29917;DHT22;16786;49.466;11.068;2023-01-31T04:38:18;2.10;99.90
29917;DHT22;16786;49.466;11.068;2023-01-31T04:40:45;2.10;99.90
29917;DHT22;16786;49.466;11.068;2023-01-31T04:43:13;2.10;99.90
29917;DHT22;16786;49.466;11.068;2023-01-31T04:45:41;2.10;99.90
29917;DHT22;16786;49.466;11.068;2023-01-31T04:48:08;2.20;99.90
29917;DHT22;16786;49.466;11.068;2023-01-31T04:50:35;2.20;99.90
29917;DHT22;16786;49.466;11.068;2023-01-31T04:53:03;2.20;99.90
29917;DHT22;16786;49.466;11.068;2023-01-31T04:55:31;2.20;99.90
29917;DHT22;16786;49.466;11.068;2023-01-31T04:57:58;2.20;99.90
29917;DHT22;16786;49.466;11.068;2023-01-31T05:00:26;2.20;99.90
29917;DHT22;16786;49.466;11.068;2023-01-31T05:02:53;2.10;99.90
29917;DHT22;16786;49.466;11.068;2023-01-31T05:05:21;2.10;99.90
29917;DHT22;16786;49.466;11.068;2023-01-31T05:07:48;2.10;99.90
29917;DHT22;16786;49.466;11.068;2023-01-31T05:10:15;2.10;99.90
29917;DHT22;16786;49.466;11.068;2023-01-31T05:12:45;2.10;99.90
29917;DHT22;16786;49.466;11.068;2023-01-31T05:15:12;2.10;99.90
29917;DHT22;16786;49.466;11.068;2023-01-31T05:17:39;2.10;99.90
29917;DHT22;16786;49.466;11.068;2023-01-31T05:20:07;2.20;99.90
29917;DHT22;16786;49.466;11.068;2023-01-31T05:22:34;2.20;99.90
29917;DHT22;16786;49.466;11.068;2023-01-31T05:25:02;2.20;99.90
29917;DHT22;16786;49.466;11.068;2023-01-31T05:27:29;2.20;99.90
29917;DHT22;16786;49.466;11.068;2023-01-31T05:29:57;2.30;99.90
29917;DHT22;16786;49.466;11.068;2023-01-31T05:32:26;2.30;99.90
29917;DHT22;16786;49.466;11.068;2023-01-31T05:34:54;2.30;99.90
29917;DHT22;16786;49.466;11.068;2023-01-31T05:37:21;2.40;99.90
29917;DHT22;16786;49.466;11.068;2023-01-31T05:39:48;2.40;99.90
29917;DHT22;16786;49.466;11.068;2023-01-31T05:42:15;2.40;99.90
29917;DHT22;16786;49.466;11.068;2023-01-31T05:44:43;2.40;99.90
29917;DHT22;16786;49.466;11.068;2023-01-31T05:47:10;2.40;99.90
29917;DHT22;16786;49.466;11.068;2023-01-31T05:49:37;2.30;99.90
29917;DHT22;16786;49.466;11.068;2023-01-31T05:52:05;2.40;99.90
29917;DHT22;16786;49.466;11.068;2023-01-31T05:54:32;2.30;99.90
29917;DHT22;16786;49.466;11.068;2023-01-31T05:57:00;2.40;99.90
29917;DHT22;16786;49.466;11.068;2023-01-31T05:59:28;2.40;99.90
29917;DHT22;16786;49.466;11.068;2023-01-31T06:01:57;2.40;99.90
29917;DHT22;16786;49.466;11.068;2023-01-31T06:04:24;2.40;99.90
29917;DHT22;16786;49.466;11.068;2023-01-31T06:06:51;2.50;99.90
29917;DHT22;16786;49.466;11.068;2023-01-31T06:09:19;2.50;99.90
29917;DHT22;16786;49.466;11.068;2023-01-31T06:11:46;2.50;99.90
29917;DHT22;16786;49.466;11.068;2023-01-31T06:14:13;2.50;99.90
29917;DHT22;16786;49.466;11.068;2023-01-31T06:16:40;2.50;99.90
29917;DHT22;16786;49.466;11.068;2023-01-31T06:19:08;2.60;99.90
29917;DHT22;16786;49.466;11.068;2023-01-31T06:21:35;2.50;99.90
29917;DHT22;16786;49.466;11.068;2023-01-31T06:24:03;2.50;99.90
29917;DHT22;16786;49.466;11.068;2023-01-31T06:26:30;2.50;99.90
29917;DHT22;16786;49.466;11.068;2023-01-31T06:28:57;2.50;99.90
29917;DHT22;16786;49.466;11.068;2023-01-31T06:31:25;2.60;99.90
29917;DHT22;16786;49.466;11.068;2023-01-31T06:33:53;2.60;99.90
29917;DHT22;16786;49.466;11.068;2023-01-31T06:36:20;2.60;99.90
29917;DHT22;16786;49.466;11.068;2023-01-31T06:38:49;2.70;99.90
29917;DHT22;16786;49.466;11.068;2023-01-31T06:41:18;2.70;99.90
29917;DHT22;16786;49.466;11.068;2023-01-31T06:43:45;2.70;99.90
29917;DHT22;16786;49.466;11.068;2023-01-31T06:46:13;2.70;99.90
29917;DHT22;16786;49.466;11.068;2023-01-31T06:48:40;2.70;99.90
29917;DHT22;16786;49.466;11.068;2023-01-31T06:51:08;2.70;99.90
29917;DHT22;16786;49.466;11.068;2023-01-31T06:53:35;2.70;99.90
29917;DHT22;16786;49.466;11.068;2023-01-31T06:56:03;2.80;99.90
29917;DHT22;16786;49.466;11.068;2023-01-31T06:58:30;2.80;99.90
29917;DHT22;16786;49.466;11.068;2023-01-31T07:01:10;2.80;99.90
29917;DHT22;16786;49.466;11.068;2023-01-31T07:03:39;2.80;99.90
29917;DHT22;16786;49.466;11.068;2023-01-31T07:06:07;2.80;99.90
29917;DHT22;16786;49.466;11.068;2023-01-31T07:08:35;2.80;99.90
29917;DHT22;16786;49.466;11.068;2023-01-31T07:11:03;2.80;99.90
29917;DHT22;16786;49.466;11.068;2023-01-31T07:13:31;2.80;99.90
29917;DHT22;16786;49.466;11.068;2023-01-31T07:15:59;2.70;99.90
29917;DHT22;16786;49.466;11.068;2023-01-31T07:18:26;2.80;99.90
29917;DHT22;16786;49.466;11.068;2023-01-31T07:20:54;2.80;99.90
29917;DHT22;16786;49.466;11.068;2023-01-31T07:23:22;2.70;99.90
29917;DHT22;16786;49.466;11.068;2023-01-31T07:25:52;2.70;99.90
29917;DHT22;16786;49.466;11.068;2023-01-31T07:28:19;2.80;99.90
29917;DHT22;16786;49.466;11.068;2023-01-31T07:30:46;2.80;99.90
29917;DHT22;16786;49.466;11.068;2023-01-31T07:33:14;2.80;99.90
29917;DHT22;16786;49.466;11.068;2023-01-31T07:35:41;2.70;99.90
29917;DHT22;16786;49.466;11.068;2023-01-31T07:38:09;2.70;99.90
29917;DHT22;16786;49.466;11.068;2023-01-31T07:40:37;2.70;99.90
29917;DHT22;16786;49.466;11.068;2023-01-31T07:43:06;2.60;99.90
29917;DHT22;16786;49.466;11.068;2023-01-31T07:45:33;2.70;99.90
29917;DHT22;16786;49.466;11.068;2023-01-31T07:48:01;2.70;99.90
29917;DHT22;16786;49.466;11.068;2023-01-31T07:50:29;2.70;99.90
29917;DHT22;16786;49.466;11.068;2023-01-31T07:52:57;2.70;99.90
29917;DHT22;16786;49.466;11.068;2023-01-31T07:55:25;2.70;99.90
29917;DHT22;16786;49.466;11.068;2023-01-31T07:57:53;2.70;99.90
29917;DHT22;16786;49.466;11.068;2023-01-31T08:00:20;2.80;99.90
29917;DHT22;16786;49.466;11.068;2023-01-31T08:03:20;2.80;99.90
29917;DHT22;16786;49.466;11.068;2023-01-31T08:06:03;2.80;99.90
29917;DHT22;16786;49.466;11.068;2023-01-31T08:08:33;2.90;99.90
29917;DHT22;16786;49.466;11.068;2023-01-31T08:11:01;2.80;99.90
29917;DHT22;16786;49.466;11.068;2023-01-31T08:13:33;2.80;99.90
29917;DHT22;16786;49.466;11.068;2023-01-31T08:16:02;2.90;99.90
29917;DHT22;16786;49.466;11.068;2023-01-31T08:18:30;2.90;99.90
29917;DHT22;16786;49.466;11.068;2023-01-31T08:20:58;2.90;99.90
29917;DHT22;16786;49.466;11.068;2023-01-31T08:23:26;2.80;99.90
29917;DHT22;16786;49.466;11.068;2023-01-31T08:26:05;2.80;99.90
29917;DHT22;16786;49.466;11.068;2023-01-31T08:28:34;2.70;99.90
29917;DHT22;16786;49.466;11.068;2023-01-31T08:31:03;2.70;99.90
29917;DHT22;16786;49.466;11.068;2023-01-31T08:33:36;2.60;99.90
29917;DHT22;16786;49.466;11.068;2023-01-31T08:36:15;2.60;99.90
29917;DHT22;16786;49.466;11.068;2023-01-31T08:38:43;2.70;99.90
29917;DHT22;16786;49.466;11.068;2023-01-31T08:41:11;2.80;99.90
29917;DHT22;16786;49.466;11.068;2023-01-31T08:43:39;2.80;99.90
29917;DHT22;16786;49.466;11.068;2023-01-31T08:46:24;3.00;99.90
29917;DHT22;16786;49.466;11.068;2023-01-31T08:48:52;3.10;99.90
29917;DHT22;16786;49.466;11.068;2023-01-31T08:51:20;3.20;99.90
29917;DHT22;16786;49.466;11.068;2023-01-31T08:53:48;3.10;99.90
29917;DHT22;16786;49.466;11.068;2023-01-31T08:56:15;3.10;99.90
29917;DHT22;16786;49.466;11.068;2023-01-31T08:58:44;3.10;99.90
29917;DHT22;16786;49.466;11.068;2023-01-31T09:01:13;3.10;99.90
29917;DHT22;16786;49.466;11.068;2023-01-31T09:03:41;3.00;99.90
29917;DHT22;16786;49.466;11.068;2023-01-31T09:06:16;3.10;99.90
29917;DHT22;16786;49.466;11.068;2023-01-31T09:08:44;3.00;99.90
29917;DHT22;16786;49.466;11.068;2023-01-31T09:11:12;3.00;99.90
29917;DHT22;16786;49.466;11.068;2023-01-31T09:13:46;3.00;99.90
29917;DHT22;16786;49.466;11.068;2023-01-31T09:16:18;3.10;99.90
29917;DHT22;16786;49.466;11.068;2023-01-31T09:18:46;3.10;99.90
29917;DHT22;16786;49.466;11.068;2023-01-31T09:21:15;3.10;99.90
29917;DHT22;16786;49.466;11.068;2023-01-31T09:23:43;3.20;99.90
29917;DHT22;16786;49.466;11.068;2023-01-31T09:26:11;3.10;99.90
29917;DHT22;16786;49.466;11.068;2023-01-31T09:28:39;3.10;99.90
29917;DHT22;16786;49.466;11.068;2023-01-31T09:31:15;3.10;99.90
29917;DHT22;16786;49.466;11.068;2023-01-31T09:33:43;3.10;99.90
29917;DHT22;16786;49.466;11.068;2023-01-31T09:36:15;3.20;99.90
29917;DHT22;16786;49.466;11.068;2023-01-31T09:38:43;3.10;99.90
29917;DHT22;16786;49.466;11.068;2023-01-31T09:41:31;3.10;99.90
29917;DHT22;16786;49.466;11.068;2023-01-31T09:44:30;3.10;99.90
29917;DHT22;16786;49.466;11.068;2023-01-31T09:47:21;3.10;99.90
29917;DHT22;16786;49.466;11.068;2023-01-31T09:50:35;3.20;99.90
29917;DHT22;16786;49.466;11.068;2023-01-31T09:53:04;3.30;99.90
29917;DHT22;16786;49.466;11.068;2023-01-31T10:01:29;3.50;99.90
29917;DHT22;16786;49.466;11.068;2023-01-31T10:07:28;3.60;99.90
29917;DHT22;16786;49.466;11.068;2023-01-31T10:13:08;3.60;99.90
29917;DHT22;16786;49.466;11.068;2023-01-31T10:16:26;3.80;99.90
29917;DHT22;16786;49.466;11.068;2023-01-31T10:18:36;3.90;99.90
29917;DHT22;16786;49.466;11.068;2023-01-31T10:21:18;4.00;99.90
29917;DHT22;16786;49.466;11.068;2023-01-31T10:24:02;4.20;99.90
29917;DHT22;16786;49.466;11.068;2023-01-31T10:26:35;4.20;99.90
29917;DHT22;16786;49.466;11.068;2023-01-31T10:34:44;4.10;99.90
29917;DHT22;16786;49.466;11.068;2023-01-31T10:40:03;4.40;99.90
29917;DHT22;16786;49.466;11.068;2023-01-31T10:42:37;4.60;99.90
29917;DHT22;16786;49.466;11.068;2023-01-31T10:47:48;4.60;99.90
29917;DHT22;16786;49.466;11.068;2023-01-31T10:53:17;4.50;99.90
29917;DHT22;16786;49.466;11.068;2023-01-31T10:56:02;4.60;99.90
29917;DHT22;16786;49.466;11.068;2023-01-31T10:58:31;4.60;99.90
29917;DHT22;16786;49.466;11.068;2023-01-31T11:00:58;4.40;99.90
29917;DHT22;16786;49.466;11.068;2023-01-31T11:03:26;4.30;99.90
29917;DHT22;16786;49.466;11.068;2023-01-31T11:05:55;4.30;99.90
29917;DHT22;16786;49.466;11.068;2023-01-31T11:08:33;4.20;99.90
29917;DHT22;16786;49.466;11.068;2023-01-31T11:11:08;4.10;99.90
29917;DHT22;16786;49.466;11.068;2023-01-31T11:13:36;3.90;99.90
29917;DHT22;16786;49.466;11.068;2023-01-31T11:16:09;3.90;99.90
29917;DHT22;16786;49.466;11.068;2023-01-31T11:18:45;3.90;99.90
29917;DHT22;16786;49.466;11.068;2023-01-31T11:21:25;3.90;99.90
29917;DHT22;16786;49.466;11.068;2023-01-31T11:24:00;4.00;99.90
29917;DHT22;16786;49.466;11.068;2023-01-31T11:26:36;4.00;99.90
29917;DHT22;16786;49.466;11.068;2023-01-31T11:31:53;4.30;99.90
29917;DHT22;16786;49.466;11.068;2023-01-31T11:34:26;5.00;99.90
29917;DHT22;16786;49.466;11.068;2023-01-31T11:37:14;5.80;99.90
29917;DHT22;16786;49.466;11.068;2023-01-31T11:39:41;6.20;99.90
29917;DHT22;16786;49.466;11.068;2023-01-31T11:42:20;6.40;99.90
29917;DHT22;16786;49.466;11.068;2023-01-31T11:44:58;6.50;99.90
29917;DHT22;16786;49.466;11.068;2023-01-31T11:47:50;6.50;99.90
29917;DHT22;16786;49.466;11.068;2023-01-31T11:52:55;6.30;99.90
29917;DHT22;16786;49.466;11.068;2023-01-31T11:55:24;6.00;99.90
29917;DHT22;16786;49.466;11.068;2023-01-31T11:57:57;5.30;99.90
29917;DHT22;16786;49.466;11.068;2023-01-31T12:00:27;5.10;99.90
29917;DHT22;16786;49.466;11.068;2023-01-31T12:03:06;4.80;99.90
29917;DHT22;16786;49.466;11.068;2023-01-31T12:05:38;4.30;99.90
29917;DHT22;16786;49.466;11.068;2023-01-31T12:08:30;4.20;99.90
29917;DHT22;16786;49.466;11.068;2023-01-31T12:10:58;4.10;99.90
29917;DHT22;16786;49.466;11.068;2023-01-31T12:13:25;4.00;99.90
29917;DHT22;16786;49.466;11.068;2023-01-31T12:15:58;3.80;99.90
29917;DHT22;16786;49.466;11.068;2023-01-31T12:21:26;3.80;99.90
29917;DHT22;16786;49.466;11.068;2023-01-31T12:26:44;3.70;99.90
29917;DHT22;16786;49.466;11.068;2023-01-31T12:32:19;3.70;99.90
29917;DHT22;16786;49.466;11.068;2023-01-31T12:43:21;3.70;99.90
29917;DHT22;16786;49.466;11.068;2023-01-31T12:46:07;3.60;99.90
29917;DHT22;16786;49.466;11.068;2023-01-31T12:54:01;3.60;99.90
29917;DHT22;16786;49.466;11.068;2023-01-31T12:56:53;3.60;99.90
29917;DHT22;16786;49.466;11.068;2023-01-31T12:59:49;3.60;99.90
29917;DHT22;16786;49.466;11.068;2023-01-31T13:02:31;3.60;99.90
29917;DHT22;16786;49.466;11.068;2023-01-31T13:07:51;3.50;99.90
29917;DHT22;16786;49.466;11.068;2023-01-31T13:12:56;3.50;99.90
29917;DHT22;16786;49.466;11.068;2023-01-31T13:15:42;3.50;99.90
29917;DHT22;16786;49.466;11.068;2023-01-31T13:18:10;3.40;99.90
29917;DHT22;16786;49.466;11.068;2023-01-31T13:20:42;3.40;99.90
29917;DHT22;16786;49.466;11.068;2023-01-31T13:23:18;3.40;99.90
29917;DHT22;16786;49.466;11.068;2023-01-31T13:26:13;3.40;99.90
29917;DHT22;16786;49.466;11.068;2023-01-31T13:29:42;3.40;99.90
29917;DHT22;16786;49.466;11.068;2023-01-31T13:31:58;3.50;99.90
29917;DHT22;16786;49.466;11.068;2023-01-31T13:34:47;3.40;99.90
29917;DHT22;16786;49.466;11.068;2023-01-31T13:37:18;3.40;99.90
29917;DHT22;16786;49.466;11.068;2023-01-31T13:39:49;3.40;99.90
29917;DHT22;16786;49.466;11.068;2023-01-31T13:42:18;3.40;99.90
29917;DHT22;16786;49.466;11.068;2023-01-31T13:44:46;3.50;99.90
29917;DHT22;16786;49.466;11.068;2023-01-31T13:47:22;3.40;99.90
29917;DHT22;16786;49.466;11.068;2023-01-31T13:52:32;3.40;99.90
29917;DHT22;16786;49.466;11.068;2023-01-31T13:55:05;3.40;99.90
29917;DHT22;16786;49.466;11.068;2023-01-31T13:57:39;3.50;99.90
29917;DHT22;16786;49.466;11.068;2023-01-31T14:00:38;3.50;99.90
29917;DHT22;16786;49.466;11.068;2023-01-31T14:03:15;3.50;99.90
29917;DHT22;16786;49.466;11.068;2023-01-31T14:13:49;3.50;99.90
29917;DHT22;16786;49.466;11.068;2023-01-31T14:16:40;3.50;99.90
29917;DHT22;16786;49.466;11.068;2023-01-31T14:32:46;3.50;99.90
29917;DHT22;16786;49.466;11.068;2023-01-31T14:38:05;3.60;99.90
29917;DHT22;16786;49.466;11.068;2023-01-31T14:43:37;3.60;99.90
29917;DHT22;16786;49.466;11.068;2023-01-31T14:46:50;3.60;99.90
29917;DHT22;16786;49.466;11.068;2023-01-31T14:49:27;3.70;99.90
29917;DHT22;16786;49.466;11.068;2023-01-31T14:55:02;3.70;99.90
29917;DHT22;16786;49.466;11.068;2023-01-31T14:57:37;3.80;99.90
29917;DHT22;16786;49.466;11.068;2023-01-31T15:02:51;3.80;99.90
29917;DHT22;16786;49.466;11.068;2023-01-31T15:05:41;3.80;99.90
29917;DHT22;16786;49.466;11.068;2023-01-31T15:10:57;3.80;99.90
29917;DHT22;16786;49.466;11.068;2023-01-31T15:16:25;3.90;99.90
29917;DHT22;16786;49.466;11.068;2023-01-31T15:21:38;3.90;99.90
29917;DHT22;16786;49.466;11.068;2023-01-31T15:24:38;3.90;99.90
29917;DHT22;16786;49.466;11.068;2023-01-31T15:27:18;3.90;99.90
29917;DHT22;16786;49.466;11.068;2023-01-31T15:30:06;3.90;99.90
29917;DHT22;16786;49.466;11.068;2023-01-31T15:33:14;3.90;99.90
29917;DHT22;16786;49.466;11.068;2023-01-31T15:35:52;3.90;99.90
29917;DHT22;16786;49.466;11.068;2023-01-31T15:38:33;3.90;99.90
29917;DHT22;16786;49.466;11.068;2023-01-31T15:41:21;3.90;99.90
29917;DHT22;16786;49.466;11.068;2023-01-31T15:43:53;3.90;99.90
29917;DHT22;16786;49.466;11.068;2023-01-31T15:46:32;4.00;99.90
29917;DHT22;16786;49.466;11.068;2023-01-31T15:49:00;3.90;99.90
29917;DHT22;16786;49.466;11.068;2023-01-31T15:51:28;3.90;99.90
29917;DHT22;16786;49.466;11.068;2023-01-31T15:54:03;3.90;99.90
29917;DHT22;16786;49.466;11.068;2023-01-31T15:56:35;3.90;99.90
29917;DHT22;16786;49.466;11.068;2023-01-31T15:59:10;4.00;99.90
29917;DHT22;16786;49.466;11.068;2023-01-31T16:01:38;3.90;99.90
29917;DHT22;16786;49.466;11.068;2023-01-31T16:04:05;3.90;99.90
29917;DHT22;16786;49.466;11.068;2023-01-31T16:06:35;3.90;99.90
29917;DHT22;16786;49.466;11.068;2023-01-31T16:09:05;4.00;99.90
29917;DHT22;16786;49.466;11.068;2023-01-31T16:11:33;4.00;99.90
29917;DHT22;16786;49.466;11.068;2023-01-31T16:14:04;4.00;99.90
29917;DHT22;16786;49.466;11.068;2023-01-31T16:16:35;4.00;99.90
29917;DHT22;16786;49.466;11.068;2023-01-31T16:19:03;4.00;99.90
29917;DHT22;16786;49.466;11.068;2023-01-31T16:26:39;4.00;99.90
29917;DHT22;16786;49.466;11.068;2023-01-31T16:29:09;3.90;99.90
29917;DHT22;16786;49.466;11.068;2023-01-31T16:31:48;4.00;99.90
29917;DHT22;16786;49.466;11.068;2023-01-31T16:34:29;4.10;99.90
29917;DHT22;16786;49.466;11.068;2023-01-31T16:37:01;4.00;99.90
29917;DHT22;16786;49.466;11.068;2023-01-31T16:39:44;4.00;99.90
29917;DHT22;16786;49.466;11.068;2023-01-31T16:44:49;4.00;99.90
29917;DHT22;16786;49.466;11.068;2023-01-31T16:52:47;3.90;99.90
29917;DHT22;16786;49.466;11.068;2023-01-31T16:55:20;3.90;99.90
29917;DHT22;16786;49.466;11.068;2023-01-31T16:57:49;3.90;99.90
29917;DHT22;16786;49.466;11.068;2023-01-31T17:02:50;4.00;99.90
29917;DHT22;16786;49.466;11.068;2023-01-31T17:05:24;3.90;99.90
29917;DHT22;16786;49.466;11.068;2023-01-31T17:07:55;3.90;99.90
29917;DHT22;16786;49.466;11.068;2023-01-31T17:10:25;4.00;99.90
29917;DHT22;16786;49.466;11.068;2023-01-31T17:13:02;4.00;99.90
29917;DHT22;16786;49.466;11.068;2023-01-31T17:15:31;3.90;99.90
29917;DHT22;16786;49.466;11.068;2023-01-31T17:17:58;3.90;99.90
29917;DHT22;16786;49.466;11.068;2023-01-31T17:20:26;4.00;99.90
29917;DHT22;16786;49.466;11.068;2023-01-31T17:22:53;4.00;99.90
29917;DHT22;16786;49.466;11.068;2023-01-31T17:25:33;4.00;99.90
29917;DHT22;16786;49.466;11.068;2023-01-31T17:28:03;4.10;99.90
29917;DHT22;16786;49.466;11.068;2023-01-31T17:30:31;4.00;99.90
29917;DHT22;16786;49.466;11.068;2023-01-31T17:32:59;4.00;99.90
29917;DHT22;16786;49.466;11.068;2023-01-31T17:35:38;4.00;99.90
29917;DHT22;16786;49.466;11.068;2023-01-31T17:38:06;4.00;99.90
29917;DHT22;16786;49.466;11.068;2023-01-31T17:40:33;4.00;99.90
29917;DHT22;16786;49.466;11.068;2023-01-31T17:43:03;4.00;99.90
29917;DHT22;16786;49.466;11.068;2023-01-31T17:45:31;4.10;99.90
29917;DHT22;16786;49.466;11.068;2023-01-31T17:47:59;4.00;99.90
29917;DHT22;16786;49.466;11.068;2023-01-31T17:50:28;4.10;99.90
29917;DHT22;16786;49.466;11.068;2023-01-31T17:52:55;4.10;99.90
29917;DHT22;16786;49.466;11.068;2023-01-31T17:55:23;4.00;99.90
29917;DHT22;16786;49.466;11.068;2023-01-31T17:57:51;4.10;99.90
29917;DHT22;16786;49.466;11.068;2023-01-31T18:00:19;4.10;99.90
29917;DHT22;16786;49.466;11.068;2023-01-31T18:02:46;4.10;99.90
29917;DHT22;16786;49.466;11.068;2023-01-31T18:05:15;4.10;99.90
29917;DHT22;16786;49.466;11.068;2023-01-31T18:07:56;4.00;99.90
29917;DHT22;16786;49.466;11.068;2023-01-31T18:10:25;4.10;99.90
29917;DHT22;16786;49.466;11.068;2023-01-31T18:12:52;4.00;99.90
29917;DHT22;16786;49.466;11.068;2023-01-31T18:15:19;4.00;99.90
29917;DHT22;16786;49.466;11.068;2023-01-31T18:17:47;3.90;99.90
29917;DHT22;16786;49.466;11.068;2023-01-31T18:20:15;3.90;99.90
29917;DHT22;16786;49.466;11.068;2023-01-31T18:22:44;4.00;99.90
29917;DHT22;16786;49.466;11.068;2023-01-31T18:25:12;4.00;99.90
29917;DHT22;16786;49.466;11.068;2023-01-31T18:27:39;4.00;99.90
29917;DHT22;16786;49.466;11.068;2023-01-31T18:30:07;4.00;99.90
29917;DHT22;16786;49.466;11.068;2023-01-31T18:32:34;3.90;99.90
29917;DHT22;16786;49.466;11.068;2023-01-31T18:35:02;4.00;99.90
29917;DHT22;16786;49.466;11.068;2023-01-31T18:37:29;4.10;99.90
29917;DHT22;16786;49.466;11.068;2023-01-31T18:39:56;4.10;99.90
29917;DHT22;16786;49.466;11.068;2023-01-31T18:42:24;4.10;99.90
29917;DHT22;16786;49.466;11.068;2023-01-31T18:44:51;4.10;99.90
29917;DHT22;16786;49.466;11.068;2023-01-31T18:47:18;4.10;99.90
29917;DHT22;16786;49.466;11.068;2023-01-31T18:49:45;4.10;99.90
29917;DHT22;16786;49.466;11.068;2023-01-31T18:52:13;4.10;99.90